PASO

Details ICAO PASO
Name Seldovia
Region USA (Alaska)
Timezone America/Anchorage (UTC-9.0)
Plans Departing 0
Arriving 2
Stats Elevation 29 ft / 9 m (AMSL)
Location 59.442439° -151.704050°
Runways 1
Magnetic Variation 15.387° E
Sunrise 2017-12-13 18:58:32 UTC / 2017-12-13 09:58:32 Local
Sunset 2017-12-14 01:06:44 UTC / 2017-12-13 16:06:44 Local
Advertisement - Login to hide

Runways

ID Width Length Bearing (true) Bearing (mag) Surface Threshold Offset Overrun Length
16 60 ft / 18 m 1,846 ft / 563 m 183.00° 167.61° Gravel 0 ft / 0 m 0 ft / 0 m
34 60 ft / 18 m 1,846 ft / 563 m 3.00° 347.61° Gravel 0 ft / 0 m 0 ft / 0 m

Map

Weather


0- 5 10 15 20 25 30 35+ Temperature / ° C

Clouds and Precipitation
Forecast for 2017-12-14 12:00 UTC. Updated an hour ago

Ground ~20,000 ft ~40,000 ft Winds

METAR

PASO 140753Z AUTO 00000KT 10SM FEW021 01/00 A2967 RMK AO2 SLP047 I1000 T00060000 TSNO $

TAF

Not found
Warning: Do not use this data for real-world aviation or navigation. No guarantee of current accuracy is given.